sensor_id;sensor_type;location;lat;lon;timestamp;P1;durP1;ratioP1;P2;durP2;ratioP2
49998;SDS011;68071;45.062;7.356;2023-03-01T00:02:48;9.40;;;8.50;;
49998;SDS011;68071;45.062;7.356;2023-03-01T00:05:52;27.88;;;16.15;;
49998;SDS011;68071;45.062;7.356;2023-03-01T00:08:56;34.13;;;21.92;;
49998;SDS011;68071;45.062;7.356;2023-03-01T00:12:00;23.73;;;14.48;;
49998;SDS011;68071;45.062;7.356;2023-03-01T00:15:04;39.08;;;23.00;;
49998;SDS011;68071;45.062;7.356;2023-03-01T00:18:08;29.02;;;19.25;;
49998;SDS011;68071;45.062;7.356;2023-03-01T00:21:12;17.73;;;14.00;;
49998;SDS011;68071;45.062;7.356;2023-03-01T00:24:16;18.90;;;14.30;;
49998;SDS011;68071;45.062;7.356;2023-03-01T00:27:20;11.77;;;10.57;;
49998;SDS011;68071;45.062;7.356;2023-03-01T00:30:25;11.05;;;9.95;;
49998;SDS011;68071;45.062;7.356;2023-03-01T00:33:30;12.20;;;9.80;;
49998;SDS011;68071;45.062;7.356;2023-03-01T00:36:35;19.90;;;14.13;;
49998;SDS011;68071;45.062;7.356;2023-03-01T00:39:40;34.75;;;23.88;;
49998;SDS011;68071;45.062;7.356;2023-03-01T00:42:43;14.38;;;12.07;;
49998;SDS011;68071;45.062;7.356;2023-03-01T00:45:48;14.43;;;11.77;;
49998;SDS011;68071;45.062;7.356;2023-03-01T00:48:52;18.27;;;14.43;;
49998;SDS011;68071;45.062;7.356;2023-03-01T00:51:57;19.13;;;13.87;;
49998;SDS011;68071;45.062;7.356;2023-03-01T00:55:01;23.30;;;16.80;;
49998;SDS011;68071;45.062;7.356;2023-03-01T00:58:06;9.50;;;8.45;;
49998;SDS011;68071;45.062;7.356;2023-03-01T01:01:17;9.38;;;7.65;;
49998;SDS011;68071;45.062;7.356;2023-03-01T01:04:23;10.75;;;8.90;;
49998;SDS011;68071;45.062;7.356;2023-03-01T01:07:27;18.02;;;14.40;;
49998;SDS011;68071;45.062;7.356;2023-03-01T01:10:33;33.42;;;21.58;;
49998;SDS011;68071;45.062;7.356;2023-03-01T01:13:38;11.93;;;9.98;;
49998;SDS011;68071;45.062;7.356;2023-03-01T01:16:44;11.77;;;10.48;;
49998;SDS011;68071;45.062;7.356;2023-03-01T01:19:48;28.25;;;20.48;;
49998;SDS011;68071;45.062;7.356;2023-03-01T01:22:52;46.60;;;29.23;;
49998;SDS011;68071;45.062;7.356;2023-03-01T01:25:56;22.50;;;16.58;;
49998;SDS011;68071;45.062;7.356;2023-03-01T01:29:02;28.88;;;18.13;;
49998;SDS011;68071;45.062;7.356;2023-03-01T01:32:08;12.18;;;9.63;;
49998;SDS011;68071;45.062;7.356;2023-03-01T01:35:12;23.88;;;14.95;;
49998;SDS011;68071;45.062;7.356;2023-03-01T01:38:16;55.38;;;33.08;;
49998;SDS011;68071;45.062;7.356;2023-03-01T01:41:20;14.07;;;10.30;;
49998;SDS011;68071;45.062;7.356;2023-03-01T01:44:27;10.18;;;8.50;;
49998;SDS011;68071;45.062;7.356;2023-03-01T01:47:32;11.27;;;8.98;;
49998;SDS011;68071;45.062;7.356;2023-03-01T01:50:36;10.82;;;8.68;;
49998;SDS011;68071;45.062;7.356;2023-03-01T01:53:43;8.70;;;7.88;;
49998;SDS011;68071;45.062;7.356;2023-03-01T01:56:55;8.73;;;7.78;;
49998;SDS011;68071;45.062;7.356;2023-03-01T02:00:10;10.27;;;8.25;;
49998;SDS011;68071;45.062;7.356;2023-03-01T02:03:23;8.63;;;7.50;;
49998;SDS011;68071;45.062;7.356;2023-03-01T02:06:33;8.93;;;8.00;;
49998;SDS011;68071;45.062;7.356;2023-03-01T02:09:43;9.02;;;8.05;;
49998;SDS011;68071;45.062;7.356;2023-03-01T02:12:50;9.07;;;8.15;;
49998;SDS011;68071;45.062;7.356;2023-03-01T02:15:54;8.73;;;7.83;;
49998;SDS011;68071;45.062;7.356;2023-03-01T02:18:58;10.75;;;8.70;;
49998;SDS011;68071;45.062;7.356;2023-03-01T02:22:06;9.77;;;8.57;;
49998;SDS011;68071;45.062;7.356;2023-03-01T02:28:35;10.48;;;9.40;;
49998;SDS011;68071;45.062;7.356;2023-03-01T02:31:40;15.57;;;12.07;;
49998;SDS011;68071;45.062;7.356;2023-03-01T02:34:45;33.92;;;22.15;;
49998;SDS011;68071;45.062;7.356;2023-03-01T02:37:49;15.23;;;11.80;;
49998;SDS011;68071;45.062;7.356;2023-03-01T02:40:53;10.57;;;9.48;;
49998;SDS011;68071;45.062;7.356;2023-03-01T02:44:00;11.27;;;9.15;;
49998;SDS011;68071;45.062;7.356;2023-03-01T02:47:04;9.07;;;8.18;;
49998;SDS011;68071;45.062;7.356;2023-03-01T02:50:55;9.13;;;7.55;;
49998;SDS011;68071;45.062;7.356;2023-03-01T02:57:03;7.57;;;6.82;;
49998;SDS011;68071;45.062;7.356;2023-03-01T03:00:10;8.55;;;6.53;;
49998;SDS011;68071;45.062;7.356;2023-03-01T03:03:22;8.02;;;7.22;;
49998;SDS011;68071;45.062;7.356;2023-03-01T03:06:26;8.48;;;7.60;;
49998;SDS011;68071;45.062;7.356;2023-03-01T03:09:31;9.97;;;8.97;;
49998;SDS011;68071;45.062;7.356;2023-03-01T03:12:35;9.85;;;8.55;;
49998;SDS011;68071;45.062;7.356;2023-03-01T03:15:41;8.63;;;7.78;;
49998;SDS011;68071;45.062;7.356;2023-03-01T03:18:46;8.20;;;7.40;;
49998;SDS011;68071;45.062;7.356;2023-03-01T03:21:50;9.85;;;8.75;;
49998;SDS011;68071;45.062;7.356;2023-03-01T03:24:54;7.80;;;7.10;;
49998;SDS011;68071;45.062;7.356;2023-03-01T03:27:58;9.38;;;8.38;;
49998;SDS011;68071;45.062;7.356;2023-03-01T03:31:02;9.80;;;8.55;;
49998;SDS011;68071;45.062;7.356;2023-03-01T03:34:10;8.93;;;8.02;;
49998;SDS011;68071;45.062;7.356;2023-03-01T03:37:21;7.70;;;6.72;;
49998;SDS011;68071;45.062;7.356;2023-03-01T03:40:48;7.43;;;6.65;;
49998;SDS011;68071;45.062;7.356;2023-03-01T03:44:04;7.28;;;6.57;;
49998;SDS011;68071;45.062;7.356;2023-03-01T03:47:08;7.10;;;6.47;;
49998;SDS011;68071;45.062;7.356;2023-03-01T03:50:12;7.25;;;6.55;;
49998;SDS011;68071;45.062;7.356;2023-03-01T03:53:18;7.15;;;6.45;;
49998;SDS011;68071;45.062;7.356;2023-03-01T03:56:23;7.70;;;6.88;;
49998;SDS011;68071;45.062;7.356;2023-03-01T03:59:29;7.15;;;6.15;;
49998;SDS011;68071;45.062;7.356;2023-03-01T04:02:33;7.15;;;6.45;;
49998;SDS011;68071;45.062;7.356;2023-03-01T04:05:37;12.52;;;11.15;;
49998;SDS011;68071;45.062;7.356;2023-03-01T04:08:42;10.00;;;8.98;;
49998;SDS011;68071;45.062;7.356;2023-03-01T04:11:46;8.90;;;8.00;;
49998;SDS011;68071;45.062;7.356;2023-03-01T04:14:50;7.18;;;6.45;;
49998;SDS011;68071;45.062;7.356;2023-03-01T04:17:55;7.75;;;7.03;;
49998;SDS011;68071;45.062;7.356;2023-03-01T04:20:59;7.67;;;6.97;;
49998;SDS011;68071;45.062;7.356;2023-03-01T04:24:03;9.75;;;8.75;;
49998;SDS011;68071;45.062;7.356;2023-03-01T04:27:08;12.50;;;10.25;;
49998;SDS011;68071;45.062;7.356;2023-03-01T04:30:12;12.57;;;10.82;;
49998;SDS011;68071;45.062;7.356;2023-03-01T04:33:15;10.95;;;9.90;;
49998;SDS011;68071;45.062;7.356;2023-03-01T04:36:21;10.82;;;9.73;;
49998;SDS011;68071;45.062;7.356;2023-03-01T04:39:28;11.52;;;10.13;;
49998;SDS011;68071;45.062;7.356;2023-03-01T04:42:31;13.98;;;10.85;;
49998;SDS011;68071;45.062;7.356;2023-03-01T04:45:36;9.98;;;8.98;;
49998;SDS011;68071;45.062;7.356;2023-03-01T04:48:41;8.45;;;7.45;;
49998;SDS011;68071;45.062;7.356;2023-03-01T04:51:46;8.43;;;7.00;;
49998;SDS011;68071;45.062;7.356;2023-03-01T04:54:50;8.73;;;7.82;;
49998;SDS011;68071;45.062;7.356;2023-03-01T04:57:54;9.63;;;8.73;;
49998;SDS011;68071;45.062;7.356;2023-03-01T05:00:58;10.75;;;9.48;;
49998;SDS011;68071;45.062;7.356;2023-03-01T05:04:02;8.95;;;7.85;;
49998;SDS011;68071;45.062;7.356;2023-03-01T05:07:09;8.13;;;7.32;;
49998;SDS011;68071;45.062;7.356;2023-03-01T05:10:13;10.15;;;9.15;;
49998;SDS011;68071;45.062;7.356;2023-03-01T05:13:16;8.32;;;7.45;;
49998;SDS011;68071;45.062;7.356;2023-03-01T05:16:24;8.25;;;7.30;;
49998;SDS011;68071;45.062;7.356;2023-03-01T05:19:28;11.88;;;10.57;;
49998;SDS011;68071;45.062;7.356;2023-03-01T05:22:37;10.88;;;9.77;;
49998;SDS011;68071;45.062;7.356;2023-03-01T05:25:41;8.40;;;7.60;;
49998;SDS011;68071;45.062;7.356;2023-03-01T05:28:46;8.07;;;7.35;;
49998;SDS011;68071;45.062;7.356;2023-03-01T05:31:51;8.10;;;7.30;;
49998;SDS011;68071;45.062;7.356;2023-03-01T05:34:56;10.35;;;8.98;;
49998;SDS011;68071;45.062;7.356;2023-03-01T05:38:00;9.50;;;8.60;;
49998;SDS011;68071;45.062;7.356;2023-03-01T05:41:03;10.02;;;8.98;;
49998;SDS011;68071;45.062;7.356;2023-03-01T05:44:07;10.52;;;9.50;;
49998;SDS011;68071;45.062;7.356;2023-03-01T05:47:11;12.85;;;11.07;;
49998;SDS011;68071;45.062;7.356;2023-03-01T05:50:25;12.35;;;10.45;;
49998;SDS011;68071;45.062;7.356;2023-03-01T05:53:33;10.90;;;9.82;;
49998;SDS011;68071;45.062;7.356;2023-03-01T05:56:37;10.07;;;8.25;;
49998;SDS011;68071;45.062;7.356;2023-03-01T05:59:41;12.75;;;11.00;;
49998;SDS011;68071;45.062;7.356;2023-03-01T06:02:45;11.52;;;9.95;;
49998;SDS011;68071;45.062;7.356;2023-03-01T06:05:49;12.15;;;10.50;;
49998;SDS011;68071;45.062;7.356;2023-03-01T06:08:53;11.43;;;10.32;;
49998;SDS011;68071;45.062;7.356;2023-03-01T06:11:57;13.32;;;11.55;;
49998;SDS011;68071;45.062;7.356;2023-03-01T06:15:01;17.85;;;15.98;;
49998;SDS011;68071;45.062;7.356;2023-03-01T06:18:08;12.25;;;11.02;;
49998;SDS011;68071;45.062;7.356;2023-03-01T06:21:11;15.52;;;13.25;;
49998;SDS011;68071;45.062;7.356;2023-03-01T06:24:15;12.82;;;10.30;;
49998;SDS011;68071;45.062;7.356;2023-03-01T06:27:19;11.00;;;9.32;;
49998;SDS011;68071;45.062;7.356;2023-03-01T06:30:24;11.93;;;9.85;;
49998;SDS011;68071;45.062;7.356;2023-03-01T06:33:29;11.75;;;10.60;;
49998;SDS011;68071;45.062;7.356;2023-03-01T06:36:33;13.82;;;11.80;;
49998;SDS011;68071;45.062;7.356;2023-03-01T06:39:37;16.80;;;15.00;;
49998;SDS011;68071;45.062;7.356;2023-03-01T06:42:42;17.83;;;15.55;;
49998;SDS011;68071;45.062;7.356;2023-03-01T06:45:47;16.73;;;14.25;;
49998;SDS011;68071;45.062;7.356;2023-03-01T06:48:51;17.80;;;15.95;;
49998;SDS011;68071;45.062;7.356;2023-03-01T06:51:55;18.30;;;15.98;;
49998;SDS011;68071;45.062;7.356;2023-03-01T06:54:59;20.42;;;16.63;;
49998;SDS011;68071;45.062;7.356;2023-03-01T06:58:03;18.10;;;15.88;;
49998;SDS011;68071;45.062;7.356;2023-03-01T07:01:07;18.05;;;15.43;;
49998;SDS011;68071;45.062;7.356;2023-03-01T07:04:12;19.57;;;17.10;;
49998;SDS011;68071;45.062;7.356;2023-03-01T07:07:19;21.10;;;18.05;;
49998;SDS011;68071;45.062;7.356;2023-03-01T07:10:42;23.85;;;19.95;;
49998;SDS011;68071;45.062;7.356;2023-03-01T07:13:46;29.15;;;24.92;;
49998;SDS011;68071;45.062;7.356;2023-03-01T07:16:50;26.75;;;20.85;;
49998;SDS011;68071;45.062;7.356;2023-03-01T07:19:54;20.90;;;17.88;;
49998;SDS011;68071;45.062;7.356;2023-03-01T07:22:58;15.77;;;14.27;;
49998;SDS011;68071;45.062;7.356;2023-03-01T07:26:02;17.85;;;13.73;;
49998;SDS011;68071;45.062;7.356;2023-03-01T07:29:07;16.13;;;13.80;;
49998;SDS011;68071;45.062;7.356;2023-03-01T07:32:11;16.75;;;13.90;;
49998;SDS011;68071;45.062;7.356;2023-03-01T07:35:15;17.42;;;14.32;;
49998;SDS011;68071;45.062;7.356;2023-03-01T07:38:19;14.85;;;13.02;;
49998;SDS011;68071;45.062;7.356;2023-03-01T07:41:23;16.05;;;13.40;;
49998;SDS011;68071;45.062;7.356;2023-03-01T07:44:27;16.85;;;14.02;;
49998;SDS011;68071;45.062;7.356;2023-03-01T07:47:32;11.15;;;9.90;;
49998;SDS011;68071;45.062;7.356;2023-03-01T07:50:36;15.50;;;12.70;;
49998;SDS011;68071;45.062;7.356;2023-03-01T07:53:40;16.70;;;13.88;;
49998;SDS011;68071;45.062;7.356;2023-03-01T07:56:44;17.02;;;13.35;;
49998;SDS011;68071;45.062;7.356;2023-03-01T07:59:48;15.15;;;12.90;;
49998;SDS011;68071;45.062;7.356;2023-03-01T08:02:52;18.65;;;14.25;;
49998;SDS011;68071;45.062;7.356;2023-03-01T08:05:59;19.73;;;15.15;;
49998;SDS011;68071;45.062;7.356;2023-03-01T08:09:03;16.08;;;14.57;;
49998;SDS011;68071;45.062;7.356;2023-03-01T08:12:07;14.30;;;12.77;;
49998;SDS011;68071;45.062;7.356;2023-03-01T08:15:11;14.75;;;13.25;;
49998;SDS011;68071;45.062;7.356;2023-03-01T08:18:16;14.93;;;13.35;;
49998;SDS011;68071;45.062;7.356;2023-03-01T08:21:21;17.23;;;14.80;;
49998;SDS011;68071;45.062;7.356;2023-03-01T08:24:25;13.70;;;12.25;;
49998;SDS011;68071;45.062;7.356;2023-03-01T08:27:29;15.63;;;13.75;;
49998;SDS011;68071;45.062;7.356;2023-03-01T08:30:33;13.95;;;12.50;;
49998;SDS011;68071;45.062;7.356;2023-03-01T08:33:38;13.43;;;12.03;;
49998;SDS011;68071;45.062;7.356;2023-03-01T08:36:43;13.77;;;12.38;;
49998;SDS011;68071;45.062;7.356;2023-03-01T08:39:48;13.40;;;11.38;;
49998;SDS011;68071;45.062;7.356;2023-03-01T08:42:52;10.57;;;9.45;;
49998;SDS011;68071;45.062;7.356;2023-03-01T08:45:56;10.70;;;9.00;;
49998;SDS011;68071;45.062;7.356;2023-03-01T08:49:02;11.88;;;8.80;;
49998;SDS011;68071;45.062;7.356;2023-03-01T08:52:08;11.48;;;9.88;;
49998;SDS011;68071;45.062;7.356;2023-03-01T08:55:12;13.57;;;10.48;;
49998;SDS011;68071;45.062;7.356;2023-03-01T08:58:18;9.45;;;8.43;;
49998;SDS011;68071;45.062;7.356;2023-03-01T09:01:22;10.00;;;8.95;;
49998;SDS011;68071;45.062;7.356;2023-03-01T09:04:26;10.32;;;9.05;;
49998;SDS011;68071;45.062;7.356;2023-03-01T09:07:30;11.10;;;9.40;;
49998;SDS011;68071;45.062;7.356;2023-03-01T09:10:36;9.73;;;8.27;;
49998;SDS011;68071;45.062;7.356;2023-03-01T09:13:41;11.43;;;9.65;;
49998;SDS011;68071;45.062;7.356;2023-03-01T09:16:45;10.75;;;9.07;;
49998;SDS011;68071;45.062;7.356;2023-03-01T09:19:50;9.82;;;8.63;;
49998;SDS011;68071;45.062;7.356;2023-03-01T09:22:54;8.70;;;7.80;;
49998;SDS011;68071;45.062;7.356;2023-03-01T09:25:58;8.68;;;7.65;;
49998;SDS011;68071;45.062;7.356;2023-03-01T09:29:02;8.88;;;7.72;;
49998;SDS011;68071;45.062;7.356;2023-03-01T09:32:06;9.02;;;7.93;;
49998;SDS011;68071;45.062;7.356;2023-03-01T09:35:11;9.60;;;8.25;;
49998;SDS011;68071;45.062;7.356;2023-03-01T09:38:16;9.75;;;7.90;;
49998;SDS011;68071;45.062;7.356;2023-03-01T09:41:44;8.70;;;7.65;;
49998;SDS011;68071;45.062;7.356;2023-03-01T09:47:50;9.05;;;7.88;;
49998;SDS011;68071;45.062;7.356;2023-03-01T09:50:54;10.32;;;8.73;;
49998;SDS011;68071;45.062;7.356;2023-03-01T09:54:03;9.30;;;8.32;;
49998;SDS011;68071;45.062;7.356;2023-03-01T10:00:22;10.70;;;8.05;;
49998;SDS011;68071;45.062;7.356;2023-03-01T10:03:44;10.63;;;8.82;;
49998;SDS011;68071;45.062;7.356;2023-03-01T10:10:38;10.02;;;8.90;;
49998;SDS011;68071;45.062;7.356;2023-03-01T10:24:08;10.85;;;9.63;;
49998;SDS011;68071;45.062;7.356;2023-03-01T10:30:29;11.15;;;9.60;;
49998;SDS011;68071;45.062;7.356;2023-03-01T10:33:40;10.10;;;9.05;;
49998;SDS011;68071;45.062;7.356;2023-03-01T10:36:49;11.60;;;9.77;;
49998;SDS011;68071;45.062;7.356;2023-03-01T10:40:08;12.15;;;9.07;;
49998;SDS011;68071;45.062;7.356;2023-03-01T10:43:12;21.55;;;16.52;;
49998;SDS011;68071;45.062;7.356;2023-03-01T10:49:49;12.55;;;9.48;;
49998;SDS011;68071;45.062;7.356;2023-03-01T10:56:06;12.63;;;10.30;;
49998;SDS011;68071;45.062;7.356;2023-03-01T10:59:22;10.65;;;9.45;;
49998;SDS011;68071;45.062;7.356;2023-03-01T11:02:29;11.75;;;10.52;;
49998;SDS011;68071;45.062;7.356;2023-03-01T11:05:36;15.00;;;11.15;;
49998;SDS011;68071;45.062;7.356;2023-03-01T11:08:45;12.80;;;10.10;;
49998;SDS011;68071;45.062;7.356;2023-03-01T11:11:54;12.02;;;9.82;;
49998;SDS011;68071;45.062;7.356;2023-03-01T11:14:59;12.60;;;10.00;;
49998;SDS011;68071;45.062;7.356;2023-03-01T11:21:21;13.85;;;10.32;;
49998;SDS011;68071;45.062;7.356;2023-03-01T11:27:52;13.73;;;10.68;;
49998;SDS011;68071;45.062;7.356;2023-03-01T11:31:02;13.70;;;11.55;;
49998;SDS011;68071;45.062;7.356;2023-03-01T11:34:11;14.02;;;11.02;;
49998;SDS011;68071;45.062;7.356;2023-03-01T11:37:38;15.05;;;11.07;;
49998;SDS011;68071;45.062;7.356;2023-03-01T11:41:06;14.50;;;10.77;;
49998;SDS011;68071;45.062;7.356;2023-03-01T11:44:18;11.63;;;10.40;;
49998;SDS011;68071;45.062;7.356;2023-03-01T11:50:47;13.68;;;11.02;;
49998;SDS011;68071;45.062;7.356;2023-03-01T12:08:41;13.95;;;10.63;;
49998;SDS011;68071;45.062;7.356;2023-03-01T12:11:56;13.82;;;11.45;;
49998;SDS011;68071;45.062;7.356;2023-03-01T12:34:59;14.20;;;10.07;;
49998;SDS011;68071;45.062;7.356;2023-03-01T12:51:40;18.17;;;14.57;;
49998;SDS011;68071;45.062;7.356;2023-03-01T12:54:49;17.27;;;13.57;;
49998;SDS011;68071;45.062;7.356;2023-03-01T12:58:02;18.67;;;13.43;;
49998;SDS011;68071;45.062;7.356;2023-03-01T13:01:16;17.80;;;13.27;;
49998;SDS011;68071;45.062;7.356;2023-03-01T13:11:06;18.08;;;14.20;;
49998;SDS011;68071;45.062;7.356;2023-03-01T13:17:33;18.33;;;15.23;;
49998;SDS011;68071;45.062;7.356;2023-03-01T13:20:46;16.63;;;14.70;;
49998;SDS011;68071;45.062;7.356;2023-03-01T13:23:51;17.65;;;15.27;;
49998;SDS011;68071;45.062;7.356;2023-03-01T13:27:28;21.17;;;15.57;;
49998;SDS011;68071;45.062;7.356;2023-03-01T13:36:51;20.73;;;16.02;;
49998;SDS011;68071;45.062;7.356;2023-03-01T13:39:56;20.27;;;15.55;;
49998;SDS011;68071;45.062;7.356;2023-03-01T13:46:40;21.02;;;16.55;;
49998;SDS011;68071;45.062;7.356;2023-03-01T13:53:05;21.55;;;17.50;;
49998;SDS011;68071;45.062;7.356;2023-03-01T13:56:17;21.40;;;17.08;;
49998;SDS011;68071;45.062;7.356;2023-03-01T13:59:30;21.00;;;16.42;;
49998;SDS011;68071;45.062;7.356;2023-03-01T14:02:34;21.27;;;18.05;;
49998;SDS011;68071;45.062;7.356;2023-03-01T14:05:41;22.48;;;18.20;;
49998;SDS011;68071;45.062;7.356;2023-03-01T14:08:48;24.77;;;18.00;;
49998;SDS011;68071;45.062;7.356;2023-03-01T14:15:38;22.38;;;17.40;;
49998;SDS011;68071;45.062;7.356;2023-03-01T14:22:30;19.55;;;15.80;;
49998;SDS011;68071;45.062;7.356;2023-03-01T14:25:37;22.17;;;18.23;;
49998;SDS011;68071;45.062;7.356;2023-03-01T14:28:42;27.10;;;20.13;;
49998;SDS011;68071;45.062;7.356;2023-03-01T14:31:47;30.10;;;23.55;;
49998;SDS011;68071;45.062;7.356;2023-03-01T14:34:51;28.25;;;21.17;;
49998;SDS011;68071;45.062;7.356;2023-03-01T14:37:55;31.77;;;24.20;;
49998;SDS011;68071;45.062;7.356;2023-03-01T14:41:00;28.80;;;21.25;;
49998;SDS011;68071;45.062;7.356;2023-03-01T14:44:11;24.67;;;20.42;;
49998;SDS011;68071;45.062;7.356;2023-03-01T14:47:31;26.83;;;21.00;;
49998;SDS011;68071;45.062;7.356;2023-03-01T14:53:45;28.80;;;21.00;;
49998;SDS011;68071;45.062;7.356;2023-03-01T14:56:50;29.60;;;24.48;;
49998;SDS011;68071;45.062;7.356;2023-03-01T15:00:00;27.58;;;21.50;;
49998;SDS011;68071;45.062;7.356;2023-03-01T15:03:11;29.40;;;22.25;;
49998;SDS011;68071;45.062;7.356;2023-03-01T15:06:19;24.80;;;19.55;;
49998;SDS011;68071;45.062;7.356;2023-03-01T15:09:25;22.83;;;19.52;;
49998;SDS011;68071;45.062;7.356;2023-03-01T15:12:36;24.80;;;19.70;;
49998;SDS011;68071;45.062;7.356;2023-03-01T15:15:43;24.90;;;19.70;;
49998;SDS011;68071;45.062;7.356;2023-03-01T15:18:54;26.30;;;19.98;;
49998;SDS011;68071;45.062;7.356;2023-03-01T15:22:03;26.70;;;19.98;;
49998;SDS011;68071;45.062;7.356;2023-03-01T15:25:16;27.73;;;21.83;;
49998;SDS011;68071;45.062;7.356;2023-03-01T15:28:26;26.63;;;21.40;;
49998;SDS011;68071;45.062;7.356;2023-03-01T15:31:36;29.33;;;22.67;;
49998;SDS011;68071;45.062;7.356;2023-03-01T15:34:42;24.73;;;21.00;;
49998;SDS011;68071;45.062;7.356;2023-03-01T15:37:46;25.90;;;21.42;;
49998;SDS011;68071;45.062;7.356;2023-03-01T15:40:52;33.85;;;29.02;;
49998;SDS011;68071;45.062;7.356;2023-03-01T15:43:57;26.38;;;20.60;;
49998;SDS011;68071;45.062;7.356;2023-03-01T15:47:04;21.98;;;19.20;;
49998;SDS011;68071;45.062;7.356;2023-03-01T15:50:27;27.25;;;22.73;;
49998;SDS011;68071;45.062;7.356;2023-03-01T15:53:36;27.10;;;21.00;;
49998;SDS011;68071;45.062;7.356;2023-03-01T15:56:40;26.73;;;21.05;;
49998;SDS011;68071;45.062;7.356;2023-03-01T15:59:44;28.25;;;21.73;;
49998;SDS011;68071;45.062;7.356;2023-03-01T16:02:48;28.55;;;22.08;;
49998;SDS011;68071;45.062;7.356;2023-03-01T16:05:52;34.40;;;30.70;;
49998;SDS011;68071;45.062;7.356;2023-03-01T16:08:57;27.30;;;22.50;;
49998;SDS011;68071;45.062;7.356;2023-03-01T16:12:01;29.95;;;24.73;;
49998;SDS011;68071;45.062;7.356;2023-03-01T16:15:10;34.17;;;27.33;;
49998;SDS011;68071;45.062;7.356;2023-03-01T16:18:20;31.33;;;27.60;;
49998;SDS011;68071;45.062;7.356;2023-03-01T16:21:24;35.30;;;28.13;;
49998;SDS011;68071;45.062;7.356;2023-03-01T16:24:29;30.58;;;24.25;;
49998;SDS011;68071;45.062;7.356;2023-03-01T16:27:33;26.42;;;21.73;;
49998;SDS011;68071;45.062;7.356;2023-03-01T16:30:37;20.38;;;17.63;;
49998;SDS011;68071;45.062;7.356;2023-03-01T16:33:45;27.40;;;21.35;;
49998;SDS011;68071;45.062;7.356;2023-03-01T16:36:56;31.58;;;23.02;;
49998;SDS011;68071;45.062;7.356;2023-03-01T16:40:00;31.98;;;24.65;;
49998;SDS011;68071;45.062;7.356;2023-03-01T16:43:04;37.05;;;27.35;;
49998;SDS011;68071;45.062;7.356;2023-03-01T16:46:12;34.33;;;25.35;;
49998;SDS011;68071;45.062;7.356;2023-03-01T16:49:18;34.28;;;25.05;;
49998;SDS011;68071;45.062;7.356;2023-03-01T16:52:22;32.47;;;26.15;;
49998;SDS011;68071;45.062;7.356;2023-03-01T16:55:26;29.30;;;22.77;;
49998;SDS011;68071;45.062;7.356;2023-03-01T16:58:30;27.33;;;21.40;;
49998;SDS011;68071;45.062;7.356;2023-03-01T17:01:34;24.27;;;19.58;;
49998;SDS011;68071;45.062;7.356;2023-03-01T17:04:43;24.05;;;18.67;;
49998;SDS011;68071;45.062;7.356;2023-03-01T17:07:50;23.83;;;18.40;;
49998;SDS011;68071;45.062;7.356;2023-03-01T17:10:54;24.35;;;18.45;;
49998;SDS011;68071;45.062;7.356;2023-03-01T17:13:57;23.30;;;18.20;;
49998;SDS011;68071;45.062;7.356;2023-03-01T17:17:01;24.50;;;18.83;;
49998;SDS011;68071;45.062;7.356;2023-03-01T17:20:06;22.13;;;18.50;;
49998;SDS011;68071;45.062;7.356;2023-03-01T17:23:10;22.92;;;18.15;;
49998;SDS011;68071;45.062;7.356;2023-03-01T17:26:15;23.92;;;19.20;;
49998;SDS011;68071;45.062;7.356;2023-03-01T17:29:20;22.52;;;18.52;;
49998;SDS011;68071;45.062;7.356;2023-03-01T17:32:24;22.52;;;18.60;;
49998;SDS011;68071;45.062;7.356;2023-03-01T17:35:28;22.73;;;18.45;;
49998;SDS011;68071;45.062;7.356;2023-03-01T17:38:31;23.80;;;19.45;;
49998;SDS011;68071;45.062;7.356;2023-03-01T17:41:35;21.25;;;18.20;;
49998;SDS011;68071;45.062;7.356;2023-03-01T17:44:39;23.10;;;19.42;;
49998;SDS011;68071;45.062;7.356;2023-03-01T17:47:43;22.45;;;19.70;;
49998;SDS011;68071;45.062;7.356;2023-03-01T17:50:47;24.10;;;18.40;;
49998;SDS011;68071;45.062;7.356;2023-03-01T17:53:51;26.65;;;19.65;;
49998;SDS011;68071;45.062;7.356;2023-03-01T17:56:55;23.60;;;18.95;;
49998;SDS011;68071;45.062;7.356;2023-03-01T18:00:01;24.05;;;17.85;;
49998;SDS011;68071;45.062;7.356;2023-03-01T18:03:15;23.95;;;18.15;;
49998;SDS011;68071;45.062;7.356;2023-03-01T18:06:20;22.10;;;18.30;;
49998;SDS011;68071;45.062;7.356;2023-03-01T18:09:26;25.13;;;20.20;;
49998;SDS011;68071;45.062;7.356;2023-03-01T18:12:30;29.08;;;24.98;;
49998;SDS011;68071;45.062;7.356;2023-03-01T18:15:34;38.63;;;32.58;;
49998;SDS011;68071;45.062;7.356;2023-03-01T18:18:39;32.00;;;27.10;;
49998;SDS011;68071;45.062;7.356;2023-03-01T18:21:44;39.58;;;32.15;;
49998;SDS011;68071;45.062;7.356;2023-03-01T18:24:48;37.22;;;28.10;;
49998;SDS011;68071;45.062;7.356;2023-03-01T18:27:52;38.15;;;27.48;;
49998;SDS011;68071;45.062;7.356;2023-03-01T18:31:00;36.05;;;25.50;;
49998;SDS011;68071;45.062;7.356;2023-03-01T18:34:06;29.63;;;24.35;;
49998;SDS011;68071;45.062;7.356;2023-03-01T18:37:10;28.70;;;22.55;;
49998;SDS011;68071;45.062;7.356;2023-03-01T18:40:14;27.50;;;22.65;;
49998;SDS011;68071;45.062;7.356;2023-03-01T18:43:19;23.48;;;19.63;;
49998;SDS011;68071;45.062;7.356;2023-03-01T18:46:23;23.63;;;19.20;;
49998;SDS011;68071;45.062;7.356;2023-03-01T18:49:27;22.00;;;18.55;;
49998;SDS011;68071;45.062;7.356;2023-03-01T18:52:46;22.65;;;18.35;;
49998;SDS011;68071;45.062;7.356;2023-03-01T18:55:50;30.25;;;24.95;;
49998;SDS011;68071;45.062;7.356;2023-03-01T18:58:54;39.95;;;31.25;;
49998;SDS011;68071;45.062;7.356;2023-03-01T19:01:59;42.03;;;31.95;;
49998;SDS011;68071;45.062;7.356;2023-03-01T19:05:04;41.72;;;30.88;;
49998;SDS011;68071;45.062;7.356;2023-03-01T19:08:08;42.20;;;30.42;;
49998;SDS011;68071;45.062;7.356;2023-03-01T19:11:13;29.48;;;23.73;;
49998;SDS011;68071;45.062;7.356;2023-03-01T19:14:19;34.78;;;26.73;;
49998;SDS011;68071;45.062;7.356;2023-03-01T19:17:24;39.92;;;31.50;;
49998;SDS011;68071;45.062;7.356;2023-03-01T19:20:32;32.95;;;27.02;;
49998;SDS011;68071;45.062;7.356;2023-03-01T19:23:37;30.17;;;25.33;;
49998;SDS011;68071;45.062;7.356;2023-03-01T19:26:41;33.45;;;27.65;;
49998;SDS011;68071;45.062;7.356;2023-03-01T19:29:45;35.75;;;28.63;;
49998;SDS011;68071;45.062;7.356;2023-03-01T19:32:48;38.13;;;31.60;;
49998;SDS011;68071;45.062;7.356;2023-03-01T19:38:59;48.70;;;39.88;;
49998;SDS011;68071;45.062;7.356;2023-03-01T19:42:05;49.05;;;38.42;;
49998;SDS011;68071;45.062;7.356;2023-03-01T19:45:09;41.70;;;32.83;;
49998;SDS011;68071;45.062;7.356;2023-03-01T19:48:12;28.38;;;24.30;;
49998;SDS011;68071;45.062;7.356;2023-03-01T19:51:17;13.98;;;11.75;;
49998;SDS011;68071;45.062;7.356;2023-03-01T19:54:21;8.05;;;6.47;;
49998;SDS011;68071;45.062;7.356;2023-03-01T19:57:26;5.00;;;4.50;;
49998;SDS011;68071;45.062;7.356;2023-03-01T20:00:31;2.92;;;2.63;;
49998;SDS011;68071;45.062;7.356;2023-03-01T20:03:35;10.27;;;6.47;;
49998;SDS011;68071;45.062;7.356;2023-03-01T20:06:39;5.40;;;4.10;;
49998;SDS011;68071;45.062;7.356;2023-03-01T20:09:44;17.90;;;10.30;;
49998;SDS011;68071;45.062;7.356;2023-03-01T20:12:48;3.60;;;3.30;;
49998;SDS011;68071;45.062;7.356;2023-03-01T20:15:56;3.95;;;3.40;;
49998;SDS011;68071;45.062;7.356;2023-03-01T20:19:02;14.52;;;10.60;;
49998;SDS011;68071;45.062;7.356;2023-03-01T20:22:08;23.92;;;18.60;;
49998;SDS011;68071;45.062;7.356;2023-03-01T20:25:12;18.70;;;13.00;;
49998;SDS011;68071;45.062;7.356;2023-03-01T20:28:17;29.13;;;19.70;;
49998;SDS011;68071;45.062;7.356;2023-03-01T20:34:31;11.93;;;8.80;;